createdAt,value
2022-08-08T00:00:50.045Z,15.50
2022-08-08T00:02:31.448Z,15.50
2022-08-08T00:05:01.620Z,15.40
2022-08-08T00:07:38.366Z,15.30
2022-08-08T00:10:14.187Z,15.30
2022-08-08T00:12:56.684Z,15.30
2022-08-08T00:15:57.625Z,15.30
2022-08-08T00:18:26.851Z,15.20
2022-08-08T00:20:57.650Z,15.20
2022-08-08T00:23:43.549Z,15.20
2022-08-08T00:26:26.100Z,15.20
2022-08-08T00:29:03.846Z,15.20
2022-08-08T00:32:20.528Z,15.20
2022-08-08T00:35:10.461Z,15.20
2022-08-08T00:38:02.984Z,15.30
2022-08-08T00:41:13.012Z,15.30
2022-08-08T00:44:09.337Z,15.30
2022-08-08T00:47:23.006Z,15.30
2022-08-08T00:50:52.582Z,15.30
2022-08-08T00:53:43.573Z,15.30
2022-08-08T00:57:03.965Z,15.40
2022-08-08T01:00:05.068Z,15.40
2022-08-08T01:04:01.253Z,15.30
2022-08-08T01:06:44.285Z,15.20
2022-08-08T01:09:58.814Z,15.20
2022-08-08T01:13:04.968Z,15.10
2022-08-08T01:15:59.718Z,15.00
2022-08-08T01:19:11.555Z,14.90
2022-08-08T01:22:12.069Z,14.80
2022-08-08T01:25:26.560Z,14.80
2022-08-08T01:28:27.703Z,14.80
2022-08-08T01:32:13.031Z,14.70
2022-08-08T01:35:17.938Z,14.60
2022-08-08T01:38:32.439Z,14.60
2022-08-08T01:41:16.175Z,14.60
2022-08-08T01:43:53.438Z,14.70
2022-08-08T01:46:47.719Z,14.70
2022-08-08T01:49:37.075Z,14.60
2022-08-08T01:52:53.689Z,14.50
2022-08-08T01:55:19.646Z,14.40
2022-08-08T01:58:38.857Z,14.40
2022-08-08T02:01:20.012Z,14.40
2022-08-08T02:04:01.761Z,14.30
2022-08-08T02:06:58.648Z,14.40
2022-08-08T02:10:02.555Z,14.50
2022-08-08T02:12:33.356Z,14.50
2022-08-08T02:15:05.176Z,14.50
2022-08-08T02:17:47.496Z,14.50
2022-08-08T02:21:00.645Z,14.30
2022-08-08T02:23:22.689Z,14.30
2022-08-08T02:26:02.092Z,14.20
2022-08-08T02:28:48.474Z,14.10
2022-08-08T02:31:58.113Z,14.10
2022-08-08T02:35:08.009Z,14.00
2022-08-08T02:37:53.257Z,14.00
2022-08-08T02:40:35.686Z,14.00
2022-08-08T02:44:37.709Z,14.00
2022-08-08T02:46:46.927Z,13.90
2022-08-08T02:49:50.722Z,13.90
2022-08-08T02:52:50.825Z,13.80
2022-08-08T02:55:40.205Z,13.80
2022-08-08T02:58:43.986Z,13.70
2022-08-08T03:02:03.573Z,13.80
2022-08-08T03:05:10.693Z,13.80
2022-08-08T03:08:11.153Z,13.80
2022-08-08T03:11:13.943Z,13.80
2022-08-08T03:15:56.874Z,13.80
2022-08-08T03:17:09.625Z,13.80
2022-08-08T03:20:05.712Z,13.90
2022-08-08T03:22:45.846Z,13.80
2022-08-08T03:25:18.821Z,13.80
2022-08-08T03:27:56.642Z,13.80
2022-08-08T03:30:26.295Z,13.70
2022-08-08T03:33:54.734Z,13.80
2022-08-08T03:36:00.181Z,13.80
2022-08-08T03:38:54.500Z,13.70
2022-08-08T03:42:12.335Z,13.70
2022-08-08T03:44:07.042Z,13.70
2022-08-08T03:46:47.167Z,13.70
2022-08-08T03:49:58.607Z,13.70
2022-08-08T03:52:13.090Z,13.60
2022-08-08T03:55:01.651Z,13.60
2022-08-08T03:58:32.370Z,13.50
2022-08-08T04:00:26.247Z,13.50
2022-08-08T04:03:03.931Z,13.50
2022-08-08T04:05:35.331Z,13.50
2022-08-08T04:08:06.134Z,13.50
2022-08-08T04:10:36.673Z,13.50
2022-08-08T04:13:17.430Z,13.50
2022-08-08T04:15:54.871Z,13.50
2022-08-08T04:18:32.321Z,13.50
2022-08-08T04:21:00.992Z,13.40
2022-08-08T04:23:33.275Z,13.40
2022-08-08T04:26:18.242Z,13.40
2022-08-08T04:28:47.519Z,13.40
2022-08-08T04:31:57.230Z,13.50
2022-08-08T04:34:10.301Z,13.70
2022-08-08T04:36:38.198Z,14.00
2022-08-08T04:40:04.671Z,14.20
2022-08-08T04:41:55.822Z,14.50
2022-08-08T04:44:23.821Z,14.90
2022-08-08T04:46:55.080Z,15.40
2022-08-08T04:49:28.753Z,15.90
2022-08-08T04:52:08.339Z,16.20
2022-08-08T04:54:42.119Z,16.30
2022-08-08T04:57:11.955Z,16.60
2022-08-08T04:59:42.254Z,16.90
2022-08-08T05:02:13.660Z,17.30
2022-08-08T05:04:44.470Z,17.60
2022-08-08T05:07:14.826Z,17.90
2022-08-08T05:09:43.202Z,18.00
2022-08-08T05:12:20.642Z,18.20
2022-08-08T05:14:49.402Z,18.20
2022-08-08T05:17:20.419Z,18.30
2022-08-08T05:20:11.294Z,18.40
2022-08-08T05:22:37.541Z,18.60
2022-08-08T05:25:06.272Z,18.90
2022-08-08T05:27:41.378Z,19.10
2022-08-08T05:30:12.993Z,19.50
2022-08-08T05:32:42.336Z,19.70
2022-08-08T05:35:13.452Z,19.80
2022-08-08T05:37:53.128Z,19.90
2022-08-08T05:40:28.019Z,19.90
2022-08-08T05:43:38.345Z,20.10
2022-08-08T05:45:53.250Z,20.20
2022-08-08T05:48:28.928Z,20.40
2022-08-08T05:51:14.365Z,20.80
2022-08-08T05:54:25.196Z,21.10
2022-08-08T05:56:41.887Z,21.50
2022-08-08T05:59:58.993Z,21.80
2022-08-08T06:02:32.964Z,22.20
2022-08-08T06:05:06.822Z,22.50
2022-08-08T06:08:02.593Z,22.90
2022-08-08T06:10:40.652Z,23.00
2022-08-08T06:13:09.192Z,23.30
2022-08-08T06:15:50.652Z,23.50
2022-08-08T06:18:25.381Z,23.70
2022-08-08T06:20:55.509Z,23.90
2022-08-08T06:23:48.759Z,24.00
2022-08-08T06:26:38.226Z,23.90
2022-08-08T06:29:25.967Z,23.90
2022-08-08T06:32:10.520Z,23.90
2022-08-08T06:34:52.364Z,23.80
2022-08-08T06:37:29.017Z,23.70
2022-08-08T06:40:07.372Z,23.70
2022-08-08T06:42:51.986Z,23.90
2022-08-08T06:45:23.044Z,24.10
2022-08-08T06:48:01.072Z,24.60
2022-08-08T06:50:33.976Z,24.70
2022-08-08T06:53:13.787Z,24.90
2022-08-08T06:55:47.115Z,24.90
2022-08-08T06:58:30.824Z,25.00
2022-08-08T07:01:11.767Z,25.20
2022-08-08T07:04:36.857Z,25.30
2022-08-08T07:06:47.093Z,25.10
2022-08-08T07:09:20.790Z,25.30
2022-08-08T07:11:51.959Z,25.40
2022-08-08T07:14:27.329Z,25.40
2022-08-08T07:17:09.535Z,25.70
2022-08-08T07:19:59.864Z,25.70
2022-08-08T07:22:35.549Z,25.50
2022-08-08T07:25:06.753Z,25.50
2022-08-08T07:28:01.818Z,25.80
2022-08-08T07:30:26.609Z,25.90
2022-08-08T07:32:59.550Z,26.20
2022-08-08T07:35:31.258Z,26.30
2022-08-08T07:38:18.384Z,26.70
2022-08-08T07:40:50.630Z,27.20
2022-08-08T07:43:35.182Z,27.20
2022-08-08T07:46:23.943Z,27.20
2022-08-08T07:48:53.507Z,27.20
2022-08-08T07:51:45.533Z,27.70
2022-08-08T07:54:26.472Z,27.90
2022-08-08T07:57:04.371Z,27.60
2022-08-08T07:59:56.458Z,27.90
2022-08-08T08:02:34.430Z,28.00
2022-08-08T08:05:14.798Z,28.20
2022-08-08T08:07:53.298Z,28.20
2022-08-08T08:10:30.211Z,28.10
2022-08-08T08:13:26.011Z,28.30
2022-08-08T08:16:11.379Z,28.70
2022-08-08T08:18:51.900Z,29.00
2022-08-08T08:21:43.962Z,29.40
2022-08-08T08:24:16.045Z,29.30
2022-08-08T08:26:52.795Z,29.60
2022-08-08T08:29:24.073Z,29.30
2022-08-08T08:31:57.482Z,29.40
2022-08-08T08:34:32.457Z,29.40
2022-08-08T08:37:07.451Z,29.60
2022-08-08T08:39:59.450Z,29.70
2022-08-08T08:42:29.065Z,29.70
2022-08-08T08:45:01.397Z,30.10
2022-08-08T08:47:43.836Z,30.40
2022-08-08T08:50:31.675Z,30.60
2022-08-08T08:53:04.681Z,30.60
2022-08-08T08:55:39.256Z,31.00
2022-08-08T08:58:09.727Z,31.00
2022-08-08T09:00:56.184Z,30.90
2022-08-08T09:03:45.666Z,30.60
2022-08-08T09:06:28.803Z,30.80
2022-08-08T09:09:07.373Z,30.70
2022-08-08T09:12:01.395Z,30.50
2022-08-08T09:14:31.550Z,30.70
2022-08-08T09:17:09.728Z,31.10
2022-08-08T09:22:00.530Z,31.20
2022-08-08T09:22:29.784Z,31.40
2022-08-08T09:24:59.282Z,31.50
2022-08-08T09:27:55.985Z,31.40
2022-08-08T09:30:22.173Z,31.70
2022-08-08T09:33:54.180Z,31.90
2022-08-08T09:35:50.024Z,31.80
2022-08-08T09:38:32.729Z,31.80
2022-08-08T09:41:06.135Z,32.00
2022-08-08T09:44:05.126Z,31.60
2022-08-08T09:46:36.042Z,31.60
2022-08-08T09:49:41.072Z,31.30
2022-08-08T09:52:06.698Z,31.10
2022-08-08T09:54:43.893Z,31.40
2022-08-08T09:57:19.166Z,31.30
2022-08-08T10:00:28.308Z,31.40
2022-08-08T10:02:41.877Z,31.50
2022-08-08T10:05:25.172Z,32.10
2022-08-08T10:08:00.469Z,32.20
2022-08-08T10:10:32.448Z,32.50
2022-08-08T10:13:06.090Z,32.40
2022-08-08T10:16:00.367Z,31.90
2022-08-08T10:18:31.714Z,32.10
2022-08-08T10:21:22.491Z,32.40
2022-08-08T10:23:58.719Z,32.70
2022-08-08T10:26:57.521Z,32.80
2022-08-08T10:29:24.991Z,32.90
2022-08-08T10:32:16.740Z,33.10
2022-08-08T10:34:58.615Z,33.20
2022-08-08T10:37:31.727Z,32.30
2022-08-08T10:40:16.838Z,32.60
2022-08-08T10:42:49.502Z,32.00
2022-08-08T10:45:18.020Z,31.70
2022-08-08T10:47:55.600Z,31.70
2022-08-08T10:50:24.611Z,32.20
2022-08-08T10:53:04.657Z,33.00
2022-08-08T10:55:39.954Z,33.10
2022-08-08T10:58:11.851Z,32.50
2022-08-08T11:00:53.251Z,32.30
2022-08-08T11:04:00.774Z,32.10
2022-08-08T11:06:31.762Z,32.50
2022-08-08T11:09:15.516Z,33.10
2022-08-08T11:12:05.703Z,33.30
2022-08-08T11:14:36.232Z,32.70
2022-08-08T11:17:06.171Z,32.90
2022-08-08T11:19:38.188Z,33.20
2022-08-08T11:22:07.841Z,33.20
2022-08-08T11:24:36.951Z,32.80
2022-08-08T11:27:10.619Z,32.50
2022-08-08T11:30:19.602Z,32.50
2022-08-08T11:32:40.399Z,32.20
2022-08-08T11:35:29.348Z,32.20
2022-08-08T11:38:35.411Z,32.00
2022-08-08T11:40:52.704Z,32.00
2022-08-08T11:43:24.432Z,32.30
2022-08-08T11:46:09.931Z,32.60
2022-08-08T11:48:42.372Z,32.80
2022-08-08T11:51:29.869Z,33.30
2022-08-08T11:54:09.891Z,33.70
2022-08-08T11:56:56.513Z,33.60
2022-08-08T12:00:01.909Z,33.60
2022-08-08T12:02:39.861Z,33.70
2022-08-08T12:05:12.264Z,33.50
2022-08-08T12:07:51.394Z,33.60
2022-08-08T12:10:21.333Z,33.50
2022-08-08T12:12:51.780Z,33.30
2022-08-08T12:15:39.940Z,33.30
2022-08-08T12:18:21.034Z,33.50
2022-08-08T12:20:50.710Z,33.10
2022-08-08T12:23:51.743Z,33.30
2022-08-08T12:26:37.657Z,33.00
2022-08-08T12:29:21.711Z,32.50
2022-08-08T12:32:09.649Z,32.40
2022-08-08T12:34:48.684Z,32.30
2022-08-08T12:37:21.343Z,32.70
2022-08-08T12:40:00.873Z,32.70
2022-08-08T12:42:33.467Z,32.90
2022-08-08T12:45:54.175Z,33.10
2022-08-08T12:48:10.476Z,33.30
2022-08-08T12:50:54.645Z,33.70
2022-08-08T12:53:29.952Z,33.60
2022-08-08T12:56:17.605Z,33.80
2022-08-08T12:58:50.581Z,34.20
2022-08-08T13:01:34.654Z,34.10
2022-08-08T13:04:19.299Z,33.90
2022-08-08T13:06:57.291Z,34.10
2022-08-08T13:09:43.255Z,34.50
2022-08-08T13:12:30.637Z,34.30
2022-08-08T13:15:00.911Z,34.30
2022-08-08T13:18:08.224Z,34.00
2022-08-08T13:20:19.979Z,34.00
2022-08-08T13:22:48.695Z,33.70
2022-08-08T13:25:21.206Z,33.70
2022-08-08T13:27:56.605Z,33.50
2022-08-08T13:30:28.652Z,33.60
2022-08-08T13:32:57.545Z,33.50
2022-08-08T13:35:29.548Z,33.50
2022-08-08T13:38:08.541Z,33.30
2022-08-08T13:40:45.050Z,33.50
2022-08-08T13:43:16.298Z,33.30
2022-08-08T13:45:47.715Z,33.50
2022-08-08T13:48:25.320Z,32.80
2022-08-08T13:50:58.016Z,32.70
2022-08-08T13:54:00.238Z,32.70
2022-08-08T13:56:44.718Z,32.80
2022-08-08T13:59:32.943Z,33.00
2022-08-08T14:02:07.785Z,32.90
2022-08-08T14:04:50.402Z,32.80
2022-08-08T14:07:22.539Z,32.90
2022-08-08T14:10:05.791Z,32.60
2022-08-08T14:12:39.889Z,32.20
2022-08-08T14:15:31.371Z,32.00
2022-08-08T14:18:35.602Z,32.20
2022-08-08T14:21:03.692Z,32.30
2022-08-08T14:24:06.679Z,32.00
2022-08-08T14:26:33.290Z,32.00
2022-08-08T14:29:06.128Z,31.90
2022-08-08T14:32:09.931Z,31.90
2022-08-08T14:34:38.272Z,32.00
2022-08-08T14:37:08.289Z,31.60
2022-08-08T14:39:48.524Z,31.40
2022-08-08T14:42:17.412Z,31.10
2022-08-08T14:44:55.557Z,30.70
2022-08-08T14:47:25.222Z,30.60
2022-08-08T14:50:10.782Z,30.80
2022-08-08T14:52:54.634Z,31.00
2022-08-08T14:55:41.519Z,31.20
2022-08-08T14:58:19.706Z,31.10
2022-08-08T15:00:49.729Z,30.90
2022-08-08T15:03:19.200Z,30.60
2022-08-08T15:05:54.736Z,30.50
2022-08-08T15:08:35.007Z,30.40
2022-08-08T15:11:08.909Z,30.30
2022-08-08T15:13:41.037Z,30.20
2022-08-08T15:16:25.880Z,30.10
2022-08-08T15:18:57.221Z,30.10
2022-08-08T15:21:30.187Z,30.00
2022-08-08T15:23:58.413Z,29.90
2022-08-08T15:26:28.929Z,29.90
2022-08-08T15:28:57.730Z,29.70
2022-08-08T15:32:03.819Z,29.60
2022-08-08T15:34:28.823Z,29.60
2022-08-08T15:37:02.131Z,29.50
2022-08-08T15:39:38.160Z,29.40
2022-08-08T15:42:10.579Z,29.10
2022-08-08T15:44:42.535Z,29.10
2022-08-08T15:47:15.987Z,29.00
2022-08-08T15:49:49.614Z,28.90
2022-08-08T15:52:20.691Z,28.90
2022-08-08T15:54:51.666Z,28.70
2022-08-08T15:57:21.309Z,28.60
2022-08-08T16:00:26.059Z,28.50
2022-08-08T16:02:37.921Z,28.60
2022-08-08T16:05:14.674Z,28.50
2022-08-08T16:07:52.336Z,28.30
2022-08-08T16:13:14.402Z,28.20
2022-08-08T16:13:32.349Z,28.10
2022-08-08T16:16:09.457Z,28.00
2022-08-08T16:18:56.854Z,28.00
2022-08-08T16:21:30.685Z,27.90
2022-08-08T16:24:00.565Z,27.90
2022-08-08T16:26:33.795Z,27.80
2022-08-08T16:29:08.998Z,27.80
2022-08-08T16:31:40.688Z,27.80
2022-08-08T16:34:09.485Z,27.80
2022-08-08T16:36:38.943Z,27.80
2022-08-08T16:39:27.846Z,27.70
2022-08-08T16:42:01.345Z,27.60
2022-08-08T16:44:34.338Z,27.50
2022-08-08T16:47:21.988Z,27.50
2022-08-08T16:50:13.602Z,27.50
2022-08-08T16:55:07.214Z,27.50
2022-08-08T16:55:52.506Z,27.50
2022-08-08T16:58:26.459Z,27.40
2022-08-08T17:00:59.035Z,27.30
2022-08-08T17:03:59.985Z,27.30
2022-08-08T17:06:36.601Z,27.20
2022-08-08T17:09:05.756Z,27.20
2022-08-08T17:11:38.902Z,27.10
2022-08-08T17:14:19.153Z,27.00
2022-08-08T17:16:51.877Z,27.00
2022-08-08T17:19:26.326Z,26.90
2022-08-08T17:21:54.804Z,26.90
2022-08-08T17:24:28.008Z,26.90
2022-08-08T17:26:58.804Z,26.80
2022-08-08T17:29:27.193Z,26.70
2022-08-08T17:31:55.112Z,26.60
2022-08-08T17:34:37.751Z,26.60
2022-08-08T17:37:14.051Z,26.60
2022-08-08T17:40:05.105Z,26.50
2022-08-08T17:42:31.215Z,26.40
2022-08-08T17:44:59.374Z,26.40
2022-08-08T17:47:37.661Z,26.30
2022-08-08T17:50:09.944Z,26.30
2022-08-08T17:52:38.249Z,26.20
2022-08-08T17:56:07.096Z,26.20
2022-08-08T17:57:56.678Z,26.10
2022-08-08T18:00:30.393Z,26.10
2022-08-08T18:03:09.186Z,26.00
2022-08-08T18:05:44.217Z,26.00
2022-08-08T18:08:38.168Z,25.90
2022-08-08T18:11:11.944Z,25.80
2022-08-08T18:13:44.236Z,25.70
2022-08-08T18:16:16.716Z,25.60
2022-08-08T18:18:52.884Z,25.60
2022-08-08T18:21:25.106Z,25.50
2022-08-08T18:24:04.298Z,25.50
2022-08-08T18:26:34.630Z,25.30
2022-08-08T18:29:02.633Z,25.20
2022-08-08T18:31:33.989Z,25.20
2022-08-08T18:34:26.078Z,25.10
2022-08-08T18:36:50.272Z,25.10
2022-08-08T18:39:28.651Z,25.00
2022-08-08T18:42:03.837Z,24.90
2022-08-08T18:44:35.896Z,24.80
2022-08-08T18:47:04.382Z,24.80
2022-08-08T18:49:40.795Z,24.70
2022-08-08T18:52:23.071Z,24.70
2022-08-08T18:55:00.612Z,24.60
2022-08-08T18:57:41.665Z,24.60
2022-08-08T19:00:15.567Z,24.50
2022-08-08T19:02:54.713Z,24.40
2022-08-08T19:05:24.332Z,24.30
2022-08-08T19:08:00.676Z,24.20
2022-08-08T19:10:30.254Z,24.20
2022-08-08T19:13:00.222Z,24.10
2022-08-08T19:15:33.974Z,24.00
2022-08-08T19:18:33.305Z,23.90
2022-08-08T19:20:54.258Z,23.80
2022-08-08T19:23:22.259Z,23.70
2022-08-08T19:26:02.351Z,23.60
2022-08-08T19:28:42.118Z,23.50
2022-08-08T19:31:17.043Z,23.40
2022-08-08T19:34:04.999Z,23.30
2022-08-08T19:36:33.173Z,23.20
2022-08-08T19:39:01.205Z,23.10
2022-08-08T19:41:30.016Z,23.10
2022-08-08T19:44:03.931Z,23.00
2022-08-08T19:46:40.734Z,22.90
2022-08-08T19:49:09.690Z,22.90
2022-08-08T19:51:41.374Z,22.80
2022-08-08T19:54:11.603Z,22.80
2022-08-08T19:56:41.542Z,22.70
2022-08-08T19:59:22.271Z,22.70
2022-08-08T20:02:03.205Z,22.60
2022-08-08T20:04:32.177Z,22.60
2022-08-08T20:07:03.590Z,22.50
2022-08-08T20:09:36.521Z,22.50
2022-08-08T20:12:13.993Z,22.40
2022-08-08T20:14:51.753Z,22.40
2022-08-08T20:17:27.805Z,22.40
2022-08-08T20:19:56.273Z,22.30
2022-08-08T20:22:26.500Z,22.20
2022-08-08T20:25:00.111Z,22.20
2022-08-08T20:27:32.819Z,22.20
2022-08-08T20:30:02.458Z,22.20
2022-08-08T20:32:31.798Z,22.10
2022-08-08T20:35:02.372Z,22.10
2022-08-08T20:37:36.993Z,22.00
2022-08-08T20:40:26.549Z,22.00
2022-08-08T20:43:02.035Z,22.00
2022-08-08T20:45:57.673Z,21.80
2022-08-08T20:48:31.810Z,21.80
2022-08-08T20:50:59.736Z,21.70
2022-08-08T20:53:59.557Z,21.70
2022-08-08T20:56:16.856Z,21.70
2022-08-08T20:58:47.755Z,21.60
2022-08-08T21:01:19.462Z,21.50
2022-08-08T21:03:55.831Z,21.40
2022-08-08T21:06:52.567Z,21.20
2022-08-08T21:09:16.477Z,21.20
2022-08-08T21:11:51.606Z,21.20
2022-08-08T21:14:33.308Z,21.10
2022-08-08T21:17:05.936Z,21.10
2022-08-08T21:19:45.838Z,21.10
2022-08-08T21:22:15.572Z,21.00
2022-08-08T21:24:52.754Z,20.90
2022-08-08T21:28:06.448Z,20.80
2022-08-08T21:30:19.284Z,20.70
2022-08-08T21:32:53.332Z,20.80
2022-08-08T21:36:19.184Z,20.60
2022-08-08T21:38:16.420Z,20.50
2022-08-08T21:40:55.860Z,20.40
2022-08-08T21:43:33.651Z,20.40
2022-08-08T21:48:06.767Z,20.40
2022-08-08T21:48:53.613Z,20.30
2022-08-08T21:54:17.592Z,19.90
2022-08-08T21:54:31.089Z,19.90
2022-08-08T21:57:00.494Z,19.90
2022-08-08T22:00:01.751Z,19.90
2022-08-08T22:02:19.407Z,20.00
2022-08-08T22:04:53.565Z,19.90
2022-08-08T22:07:39.939Z,19.50
2022-08-08T22:10:18.309Z,19.20
2022-08-08T22:13:16.581Z,18.90
2022-08-08T22:15:59.698Z,18.80
2022-08-08T22:18:30.915Z,18.80
2022-08-08T22:21:14.390Z,18.70
2022-08-08T22:23:50.568Z,18.60
2022-08-08T22:26:28.754Z,18.30
2022-08-08T22:29:14.410Z,18.30
2022-08-08T22:31:58.245Z,18.10
2022-08-08T22:34:31.473Z,18.00
2022-08-08T22:37:00.745Z,18.00
2022-08-08T22:39:46.162Z,18.00
2022-08-08T22:42:27.126Z,17.90
2022-08-08T22:44:55.606Z,17.80
2022-08-08T22:47:24.398Z,17.80
2022-08-08T22:50:09.976Z,17.80
2022-08-08T22:53:22.463Z,17.70
2022-08-08T22:55:59.351Z,17.70
2022-08-08T22:58:30.960Z,17.70
2022-08-08T23:01:00.521Z,17.50
2022-08-08T23:03:34.332Z,17.40
2022-08-08T23:06:16.890Z,17.20
2022-08-08T23:08:55.988Z,17.10
2022-08-08T23:11:31.451Z,17.10
2022-08-08T23:14:17.149Z,17.10
2022-08-08T23:16:46.284Z,17.00
2022-08-08T23:19:17.315Z,17.00
2022-08-08T23:21:46.904Z,17.00
2022-08-08T23:24:23.063Z,16.90
2022-08-08T23:26:55.891Z,16.90
2022-08-08T23:29:25.286Z,16.80
2022-08-08T23:31:53.364Z,16.80
2022-08-08T23:34:22.302Z,16.80
2022-08-08T23:36:56.554Z,16.80
2022-08-08T23:39:32.288Z,16.80
2022-08-08T23:42:09.706Z,16.90
2022-08-08T23:44:38.533Z,16.90
2022-08-08T23:49:01.629Z,16.90
2022-08-08T23:50:02.806Z,16.70
2022-08-08T23:52:33.843Z,16.70
2022-08-08T23:55:14.348Z,16.60
2022-08-08T23:57:52.406Z,16.50
